createdAt,value
2023-02-05T00:05:42.042Z,0.20
2023-02-05T00:08:43.777Z,0.20
2023-02-05T00:11:46.985Z,0.02
2023-02-05T00:15:14.983Z,0.08
2023-02-05T00:21:49.735Z,0.06
2023-02-05T00:24:43.990Z,0.12
2023-02-05T00:27:33.689Z,0.06
2023-02-05T00:30:43.051Z,0.17
2023-02-05T00:33:59.355Z,0.07
2023-02-05T00:36:49.346Z,0.03
2023-02-05T00:40:16.648Z,0.08
2023-02-05T00:43:29.018Z,0.01
2023-02-05T00:46:43.415Z,0.04
2023-02-05T00:49:48.642Z,-0.08
2023-02-05T00:52:28.979Z,-0.06
2023-02-05T00:55:16.161Z,-0.12
2023-02-05T00:58:19.172Z,-0.14
2023-02-05T01:01:31.929Z,-0.16
2023-02-05T01:04:07.744Z,-0.14
2023-02-05T01:06:37.960Z,-0.34
2023-02-05T01:09:10.925Z,-0.26
2023-02-05T01:11:44.245Z,-0.26
2023-02-05T01:14:14.363Z,-0.28
2023-02-05T01:16:44.695Z,-0.15
2023-02-05T01:19:14.825Z,-0.16
2023-02-05T01:21:45.291Z,-0.20
2023-02-05T01:24:18.296Z,-0.15
2023-02-05T01:26:48.773Z,-0.29
2023-02-05T01:29:19.328Z,-0.43
2023-02-05T01:31:49.930Z,-0.53
2023-02-05T01:34:20.442Z,-0.63
2023-02-05T01:36:50.806Z,-0.82
2023-02-05T01:39:23.791Z,-0.42
2023-02-05T01:41:54.091Z,-0.38
2023-02-05T01:44:29.234Z,-0.33
2023-02-05T01:47:00.100Z,-0.29
2023-02-05T01:49:33.732Z,-0.51
2023-02-05T01:52:08.899Z,-0.60
2023-02-05T01:54:45.968Z,-0.47
2023-02-05T01:57:22.800Z,-0.55
2023-02-05T01:59:54.199Z,-0.63
2023-02-05T02:02:24.552Z,-0.60
2023-02-05T02:04:58.143Z,-0.63
2023-02-05T02:07:28.395Z,-0.73
2023-02-05T02:10:01.712Z,-0.59
2023-02-05T02:12:35.575Z,-0.75
2023-02-05T02:15:12.310Z,-0.47
2023-02-05T02:17:45.247Z,-0.44
2023-02-05T02:20:18.507Z,-0.54
2023-02-05T02:23:08.330Z,-0.54
2023-02-05T02:25:58.127Z,-0.65
2023-02-05T02:28:34.941Z,-0.77
2023-02-05T02:31:09.547Z,-0.77
2023-02-05T02:33:47.367Z,-0.76
2023-02-05T02:36:25.202Z,-0.81
2023-02-05T02:39:05.935Z,-0.81
2023-02-05T02:41:52.893Z,-0.61
2023-02-05T02:44:31.271Z,-0.61
2023-02-05T02:47:07.204Z,-0.61
2023-02-05T02:49:42.178Z,-0.73
2023-02-05T02:52:16.834Z,-0.70
2023-02-05T02:54:50.581Z,-0.73
2023-02-05T02:57:22.381Z,-0.75
2023-02-05T02:59:58.359Z,-0.79
2023-02-05T03:02:31.852Z,-0.80
2023-02-05T03:05:07.572Z,-0.70
2023-02-05T03:07:41.098Z,-0.69
2023-02-05T03:10:17.154Z,-0.89
2023-02-05T03:12:51.037Z,-0.88
2023-02-05T03:15:24.047Z,-0.82
2023-02-05T03:17:58.553Z,-0.80
2023-02-05T03:20:33.911Z,-0.83
2023-02-05T03:23:04.268Z,-0.85
2023-02-05T03:25:34.707Z,-0.84
2023-02-05T03:28:06.054Z,-0.86
2023-02-05T03:30:52.123Z,-0.84
2023-02-05T03:33:38.811Z,-0.81
2023-02-05T03:36:17.484Z,-0.82
2023-02-05T03:39:06.908Z,-0.84
2023-02-05T03:42:01.495Z,-0.82
2023-02-05T03:44:54.447Z,-0.75
2023-02-05T03:47:39.271Z,-0.68
2023-02-05T03:50:20.712Z,-0.65
2023-02-05T03:52:56.514Z,-0.56
2023-02-05T03:55:32.877Z,-0.58
2023-02-05T03:58:08.959Z,-0.50
2023-02-05T04:00:39.596Z,-0.44
2023-02-05T04:03:12.611Z,-0.44
2023-02-05T04:05:42.964Z,-0.42
2023-02-05T04:08:13.680Z,-0.43
2023-02-05T04:10:43.996Z,-0.43
2023-02-05T04:13:14.180Z,-0.59
2023-02-05T04:15:44.359Z,-0.70
2023-02-05T04:18:17.190Z,-0.97
2023-02-05T04:20:47.930Z,-0.97
2023-02-05T04:23:18.098Z,-0.99
2023-02-05T04:25:48.444Z,-1.21
2023-02-05T04:28:18.668Z,-1.22
2023-02-05T04:30:48.983Z,-1.36
2023-02-05T04:33:21.859Z,-1.43
2023-02-05T04:35:51.993Z,-1.50
2023-02-05T04:38:22.262Z,-1.57
2023-02-05T04:40:52.451Z,-1.62
2023-02-05T04:43:22.624Z,-1.62
2023-02-05T04:45:52.998Z,-1.60
2023-02-05T04:48:25.823Z,-1.61
2023-02-05T04:50:56.024Z,-1.51
2023-02-05T04:53:26.259Z,-1.44
2023-02-05T04:56:06.399Z,-1.29
2023-02-05T04:58:39.755Z,-1.33
2023-02-05T05:01:14.933Z,-1.22
2023-02-05T05:03:48.023Z,-1.27
2023-02-05T05:06:19.793Z,-1.30
2023-02-05T05:08:49.999Z,-1.28
2023-02-05T05:11:24.619Z,-1.38
2023-02-05T05:13:54.984Z,-1.50
2023-02-05T05:16:26.348Z,-1.41
2023-02-05T05:18:59.530Z,-1.50
2023-02-05T05:21:29.792Z,-1.55
2023-02-05T05:23:59.963Z,-1.63
2023-02-05T05:26:30.218Z,-1.69
2023-02-05T05:29:00.614Z,-1.72
2023-02-05T05:31:30.759Z,-1.84
2023-02-05T05:34:09.258Z,-1.74
2023-02-05T05:36:42.824Z,-1.61
2023-02-05T05:39:25.465Z,-1.60
2023-02-05T05:42:08.084Z,-1.62
2023-02-05T05:44:38.255Z,-1.70
2023-02-05T05:47:08.483Z,-1.67
2023-02-05T05:49:41.430Z,-1.62
2023-02-05T05:52:11.665Z,-1.58
2023-02-05T05:54:42.171Z,-1.57
2023-02-05T05:57:12.348Z,-1.52
2023-02-05T05:59:42.691Z,-1.48
2023-02-05T06:02:13.456Z,-1.44
2023-02-05T06:04:46.393Z,-1.37
2023-02-05T06:07:16.569Z,-1.27
2023-02-05T06:09:47.288Z,-1.14
2023-02-05T06:12:17.488Z,-1.13
2023-02-05T06:14:47.668Z,-1.08
2023-02-05T06:17:17.876Z,-1.17
2023-02-05T06:19:55.384Z,-1.11
2023-02-05T06:22:25.674Z,-1.14
2023-02-05T06:24:56.148Z,-0.98
2023-02-05T06:27:26.375Z,-0.97
2023-02-05T06:30:00.090Z,-0.92
2023-02-05T06:32:30.507Z,-0.83
2023-02-05T06:35:03.275Z,-0.76
2023-02-05T06:37:46.761Z,-0.71
2023-02-05T06:40:18.353Z,-0.56
2023-02-05T06:42:48.760Z,-0.44
2023-02-05T06:45:19.195Z,-0.31
2023-02-05T06:47:49.883Z,-0.15
2023-02-05T06:50:22.838Z,0.00
2023-02-05T06:52:53.116Z,0.18
2023-02-05T06:55:23.815Z,0.42
2023-02-05T06:57:54.004Z,0.76
2023-02-05T07:00:24.531Z,1.30
2023-02-05T07:02:55.325Z,1.56
2023-02-05T07:05:28.428Z,1.84
2023-02-05T07:07:59.968Z,2.20
2023-02-05T07:10:30.721Z,2.71
2023-02-05T07:13:03.999Z,3.22
2023-02-05T07:15:37.927Z,2.95
2023-02-05T07:18:08.383Z,3.14
2023-02-05T07:20:41.527Z,2.34
2023-02-05T07:23:14.190Z,1.76
2023-02-05T07:25:44.658Z,1.65
2023-02-05T07:28:15.155Z,1.21
2023-02-05T07:30:47.891Z,1.02
2023-02-05T07:33:18.104Z,1.03
2023-02-05T07:35:50.976Z,0.97
2023-02-05T07:38:21.745Z,1.01
2023-02-05T07:40:54.237Z,0.88
2023-02-05T07:43:24.519Z,1.05
2023-02-05T07:45:59.484Z,1.12
2023-02-05T07:48:29.662Z,0.92
2023-02-05T07:51:07.131Z,1.16
2023-02-05T07:53:37.491Z,1.11
2023-02-05T07:56:08.683Z,1.07
2023-02-05T07:58:39.085Z,1.08
2023-02-05T08:01:10.294Z,1.19
2023-02-05T08:03:40.628Z,1.29
2023-02-05T08:06:18.227Z,1.32
2023-02-05T08:08:48.459Z,1.30
2023-02-05T08:11:20.042Z,1.38
2023-02-05T08:13:50.326Z,1.34
2023-02-05T08:16:23.315Z,1.45
2023-02-05T08:18:54.039Z,1.19
2023-02-05T08:21:33.120Z,1.35
2023-02-05T08:24:04.490Z,1.31
2023-02-05T08:26:34.719Z,1.34
2023-02-05T08:29:05.268Z,1.45
2023-02-05T08:31:35.592Z,1.39
2023-02-05T08:34:05.873Z,1.44
2023-02-05T08:36:39.189Z,1.58
2023-02-05T08:39:09.433Z,1.63
2023-02-05T08:41:39.715Z,1.71
2023-02-05T08:44:10.114Z,1.81
2023-02-05T08:46:49.742Z,1.50
2023-02-05T08:49:23.775Z,1.28
2023-02-05T08:51:58.318Z,1.99
2023-02-05T08:54:28.686Z,1.88
2023-02-05T08:56:59.113Z,2.35
2023-02-05T08:59:29.328Z,2.72
2023-02-05T09:01:59.806Z,2.60
2023-02-05T09:04:31.203Z,2.46
2023-02-05T09:07:04.010Z,2.89
2023-02-05T09:09:35.403Z,2.97
2023-02-05T09:12:06.069Z,3.00
2023-02-05T09:14:36.569Z,3.38
2023-02-05T09:17:07.331Z,3.03
2023-02-05T09:19:38.039Z,2.81
2023-02-05T09:22:13.546Z,3.14
2023-02-05T09:24:43.969Z,3.07
2023-02-05T09:27:15.388Z,3.00
2023-02-05T09:29:45.752Z,3.16
2023-02-05T09:32:16.306Z,3.13
2023-02-05T09:34:46.523Z,3.46
2023-02-05T09:37:20.360Z,4.17
2023-02-05T09:40:19.326Z,3.92
2023-02-05T09:42:51.924Z,3.75
2023-02-05T09:45:38.912Z,3.38
2023-02-05T09:48:33.821Z,3.00
2023-02-05T09:51:07.314Z,3.04
2023-02-05T09:53:44.627Z,2.85
2023-02-05T09:56:17.608Z,2.85
2023-02-05T09:58:51.090Z,3.07
2023-02-05T10:01:26.205Z,2.99
2023-02-05T10:03:59.993Z,2.93
2023-02-05T10:06:52.095Z,3.15
2023-02-05T10:09:51.935Z,3.53
2023-02-05T10:12:39.576Z,3.02
2023-02-05T10:15:23.471Z,3.00
2023-02-05T10:18:07.345Z,2.89
2023-02-05T10:20:53.495Z,3.03
2023-02-05T10:23:43.360Z,2.57
2023-02-05T10:26:18.254Z,2.79
2023-02-05T10:29:12.135Z,2.84
2023-02-05T10:31:45.288Z,2.87
2023-02-05T10:34:32.062Z,2.83
2023-02-05T10:39:59.315Z,3.02
2023-02-05T10:42:38.663Z,2.97
2023-02-05T10:45:19.218Z,3.10
2023-02-05T10:47:59.826Z,2.61
2023-02-05T10:50:38.006Z,2.93
2023-02-05T10:53:08.339Z,3.10
2023-02-05T10:55:39.755Z,3.13
2023-02-05T10:58:41.107Z,3.39
2023-02-05T11:01:17.379Z,3.50
2023-02-05T11:03:56.677Z,3.75
2023-02-05T11:06:29.410Z,3.22
2023-02-05T11:08:59.746Z,3.48
2023-02-05T11:11:32.554Z,3.37
2023-02-05T11:14:10.054Z,3.02
2023-02-05T11:16:44.018Z,2.88
2023-02-05T11:19:21.447Z,3.34
2023-02-05T11:21:55.476Z,3.47
2023-02-05T11:24:32.502Z,3.62
2023-02-05T11:27:33.542Z,3.63
2023-02-05T11:30:52.256Z,3.81
2023-02-05T11:33:35.471Z,3.56
2023-02-05T11:36:08.248Z,3.78
2023-02-05T11:38:47.080Z,3.70
2023-02-05T11:41:29.488Z,3.70
2023-02-05T11:44:01.485Z,3.92
2023-02-05T11:46:45.586Z,4.15
2023-02-05T11:49:24.817Z,4.18
2023-02-05T11:51:58.706Z,3.67
2023-02-05T11:54:32.693Z,4.02
2023-02-05T11:57:03.706Z,4.41
2023-02-05T11:59:34.363Z,4.24
2023-02-05T12:02:35.294Z,4.60
2023-02-05T12:05:21.318Z,4.53
2023-02-05T12:07:56.506Z,4.33
2023-02-05T12:10:38.262Z,4.44
2023-02-05T12:13:18.630Z,4.15
2023-02-05T12:16:00.848Z,4.08
2023-02-05T12:18:48.879Z,4.35
2023-02-05T12:21:28.427Z,3.91
2023-02-05T12:24:28.050Z,3.89
2023-02-05T12:27:08.536Z,4.07
2023-02-05T12:29:54.782Z,3.97
2023-02-05T12:32:39.912Z,4.06
2023-02-05T12:35:43.682Z,4.29
2023-02-05T12:38:32.136Z,4.14
2023-02-05T12:41:16.073Z,4.18
2023-02-05T12:43:50.559Z,4.20
2023-02-05T12:46:40.380Z,4.12
2023-02-05T12:49:27.795Z,4.15
2023-02-05T12:52:16.753Z,3.55
2023-02-05T12:55:02.852Z,3.41
2023-02-05T12:57:44.264Z,2.77
2023-02-05T13:00:20.539Z,2.38
2023-02-05T13:03:01.964Z,2.34
2023-02-05T13:05:37.361Z,2.58
2023-02-05T13:08:16.798Z,2.39
2023-02-05T13:10:55.024Z,2.64
2023-02-05T13:13:30.152Z,2.72
2023-02-05T13:16:05.919Z,2.85
2023-02-05T13:18:42.001Z,2.83
2023-02-05T13:21:30.724Z,2.16
2023-02-05T13:24:30.562Z,2.20
2023-02-05T13:27:13.638Z,2.09
2023-02-05T13:29:51.582Z,2.22
2023-02-05T13:32:31.317Z,2.07
2023-02-05T13:35:02.034Z,2.10
2023-02-05T13:38:10.624Z,2.35
2023-02-05T13:40:58.216Z,2.03
2023-02-05T13:44:02.620Z,1.97
2023-02-05T13:46:56.654Z,2.02
2023-02-05T13:50:03.479Z,1.74
2023-02-05T13:53:19.050Z,1.33
2023-02-05T13:56:07.348Z,1.38
2023-02-05T13:58:43.785Z,1.49
2023-02-05T14:01:21.792Z,1.20
2023-02-05T14:04:00.247Z,1.46
2023-02-05T14:06:33.896Z,1.30
2023-02-05T14:09:08.412Z,1.23
2023-02-05T14:11:57.787Z,1.18
2023-02-05T14:14:31.498Z,1.03
2023-02-05T14:17:03.190Z,0.90
2023-02-05T14:19:57.277Z,0.81
2023-02-05T14:22:43.124Z,0.77
2023-02-05T14:25:46.201Z,0.94
2023-02-05T14:28:45.927Z,0.68
2023-02-05T14:31:50.620Z,0.45
2023-02-05T14:34:57.887Z,0.76
2023-02-05T14:37:33.653Z,0.15
2023-02-05T14:40:23.789Z,0.29
2023-02-05T14:43:09.665Z,0.73
2023-02-05T14:45:50.786Z,0.08
2023-02-05T14:48:25.025Z,0.21
2023-02-05T14:51:08.164Z,0.29
2023-02-05T14:53:40.678Z,0.04
2023-02-05T14:56:11.263Z,0.11
2023-02-05T14:58:45.316Z,0.29
2023-02-05T15:01:47.079Z,0.11
2023-02-05T15:04:33.634Z,-0.12
2023-02-05T15:07:12.100Z,0.20
2023-02-05T15:09:47.044Z,0.30
2023-02-05T15:13:04.333Z,0.17
2023-02-05T15:15:37.631Z,0.15
2023-02-05T15:18:24.492Z,0.07
2023-02-05T15:20:57.628Z,0.39
2023-02-05T15:23:41.677Z,0.15
2023-02-05T15:26:23.978Z,0.05
2023-02-05T15:29:01.925Z,0.17
2023-02-05T15:31:45.708Z,-0.01
2023-02-05T15:34:33.907Z,0.34
2023-02-05T15:37:07.848Z,-0.09
2023-02-05T15:39:42.914Z,-0.09
2023-02-05T15:42:18.605Z,-0.02
2023-02-05T15:44:49.084Z,0.09
2023-02-05T15:47:23.814Z,0.15
2023-02-05T15:50:02.416Z,0.10
2023-02-05T15:52:35.079Z,0.04
2023-02-05T15:55:15.469Z,0.16
2023-02-05T15:57:48.147Z,0.03
2023-02-05T16:00:25.345Z,0.09
2023-02-05T16:03:00.267Z,-0.23
2023-02-05T16:05:35.304Z,-0.10
2023-02-05T16:08:05.899Z,0.11
2023-02-05T16:10:37.861Z,-0.02
2023-02-05T16:13:10.287Z,0.12
2023-02-05T16:15:45.367Z,0.00
2023-02-05T16:18:21.666Z,-0.30
2023-02-05T16:20:59.769Z,-0.23
2023-02-05T16:23:35.191Z,-0.24
2023-02-05T16:26:09.808Z,-0.22
2023-02-05T16:28:46.268Z,-0.29
2023-02-05T16:31:24.357Z,-0.28
2023-02-05T16:33:58.848Z,-0.26
2023-02-05T16:36:34.993Z,-0.50
2023-02-05T16:39:09.507Z,-0.43
2023-02-05T16:41:43.153Z,-0.39
2023-02-05T16:44:30.501Z,-0.37
2023-02-05T16:47:18.774Z,-0.47
2023-02-05T16:49:52.150Z,-0.58
2023-02-05T16:52:36.591Z,-0.58
2023-02-05T16:55:31.084Z,-0.47
2023-02-05T16:58:08.509Z,-0.50
2023-02-05T17:00:39.194Z,-0.41
2023-02-05T17:03:20.884Z,-0.41
2023-02-05T17:06:01.681Z,-0.31
2023-02-05T17:08:40.234Z,-0.76
2023-02-05T17:11:29.407Z,-0.59
2023-02-05T17:14:15.023Z,-0.63
2023-02-05T17:16:57.705Z,-0.50
2023-02-05T17:19:31.237Z,-0.74
2023-02-05T17:22:23.231Z,-0.92
2023-02-05T17:24:56.280Z,-0.59
2023-02-05T17:27:32.669Z,-0.63
2023-02-05T17:30:04.329Z,-0.63
2023-02-05T17:32:36.648Z,-0.63
2023-02-05T17:35:16.332Z,-0.78
2023-02-05T17:37:46.840Z,-0.79
2023-02-05T17:40:20.769Z,-0.87
2023-02-05T17:42:51.272Z,-0.99
2023-02-05T17:45:25.048Z,-0.86
2023-02-05T17:47:55.739Z,-0.89
2023-02-05T17:50:26.542Z,-0.97
2023-02-05T17:52:57.242Z,-0.82
2023-02-05T17:55:30.639Z,-0.71
2023-02-05T17:58:01.904Z,-0.75
2023-02-05T18:00:35.541Z,-0.79
2023-02-05T18:03:06.294Z,-0.84
2023-02-05T18:05:36.787Z,-0.87
2023-02-05T18:08:07.686Z,-0.95
2023-02-05T18:10:40.826Z,-0.99
2023-02-05T18:13:11.593Z,-1.09
2023-02-05T18:15:43.254Z,-1.42
2023-02-05T18:18:13.861Z,-1.12
2023-02-05T18:20:44.458Z,-1.02
2023-02-05T18:23:27.572Z,-1.05
2023-02-05T18:26:01.647Z,-0.99
2023-02-05T18:28:32.513Z,-1.07
2023-02-05T18:31:05.380Z,-1.15
2023-02-05T18:33:37.410Z,-1.13
2023-02-05T18:36:11.045Z,-1.16
2023-02-05T18:38:43.669Z,-1.31
2023-02-05T18:41:18.286Z,-1.16
2023-02-05T18:43:48.743Z,-1.15
2023-02-05T18:46:21.265Z,-1.22
2023-02-05T18:48:52.059Z,-1.16
2023-02-05T18:51:24.768Z,-1.08
2023-02-05T18:53:56.294Z,-1.20
2023-02-05T18:56:30.734Z,-1.08
2023-02-05T18:59:06.173Z,-1.18
2023-02-05T19:01:38.868Z,-1.23
2023-02-05T19:04:11.483Z,-1.26
2023-02-05T19:06:43.791Z,-1.23
2023-02-05T19:09:14.699Z,-1.32
2023-02-05T19:11:47.693Z,-1.45
2023-02-05T19:14:20.129Z,-1.41
2023-02-05T19:16:54.431Z,-1.57
2023-02-05T19:19:27.485Z,-1.38
2023-02-05T19:22:05.445Z,-1.41
2023-02-05T19:24:36.406Z,-1.46
2023-02-05T19:27:09.460Z,-1.35
2023-02-05T19:29:41.066Z,-1.73
2023-02-05T19:32:11.588Z,-1.76
2023-02-05T19:34:43.417Z,-1.90
2023-02-05T19:37:13.881Z,-1.90
2023-02-05T19:39:44.072Z,-1.97
2023-02-05T19:42:17.328Z,-1.78
2023-02-05T19:44:47.577Z,-1.81
2023-02-05T19:47:18.789Z,-1.54
2023-02-05T19:49:49.372Z,-1.50
2023-02-05T19:52:19.934Z,-1.32
2023-02-05T19:54:50.376Z,-1.33
2023-02-05T19:57:23.434Z,-1.29
2023-02-05T19:59:53.954Z,-1.52
2023-02-05T20:02:27.109Z,-1.85
2023-02-05T20:04:58.144Z,-1.49
2023-02-05T20:07:28.643Z,-1.79
2023-02-05T20:09:59.247Z,-1.54
2023-02-05T20:12:33.247Z,-1.70
2023-02-05T20:15:03.841Z,-1.41
2023-02-05T20:17:34.468Z,-1.34
2023-02-05T20:20:12.704Z,-1.29
2023-02-05T20:22:54.166Z,-1.28
2023-02-05T20:25:24.650Z,-1.37
2023-02-05T20:27:58.018Z,-1.41
2023-02-05T20:30:40.913Z,-1.51
2023-02-05T20:33:11.615Z,-1.56
2023-02-05T20:35:42.189Z,-1.67
2023-02-05T20:38:12.756Z,-1.77
2023-02-05T20:40:43.204Z,-1.84
2023-02-05T20:43:16.380Z,-1.91
2023-02-05T20:45:46.920Z,-1.94
2023-02-05T20:48:17.802Z,-1.95
2023-02-05T20:50:48.449Z,-1.98
2023-02-05T20:53:18.967Z,-2.02
2023-02-05T20:55:51.263Z,-2.04
2023-02-05T20:58:24.393Z,-2.15
2023-02-05T21:00:55.174Z,-2.25
2023-02-05T21:03:25.553Z,-2.26
2023-02-05T21:05:59.939Z,-2.29
2023-02-05T21:08:31.048Z,-2.40
2023-02-05T21:11:01.588Z,-2.37
2023-02-05T21:13:35.074Z,-2.36
2023-02-05T21:16:06.267Z,-2.34
2023-02-05T21:18:40.324Z,-2.31
2023-02-05T21:21:11.020Z,-2.33
2023-02-05T21:23:42.075Z,-2.39
2023-02-05T21:26:21.072Z,-2.56
2023-02-05T21:28:55.545Z,-2.53
2023-02-05T21:31:33.705Z,-2.56
2023-02-05T21:34:07.589Z,-2.61
2023-02-05T21:36:38.118Z,-2.58
2023-02-05T21:39:08.516Z,-2.64
2023-02-05T21:41:39.257Z,-2.75
2023-02-05T21:44:12.048Z,-2.77
2023-02-05T21:46:43.208Z,-2.88
2023-02-05T21:49:16.008Z,-2.86
2023-02-05T21:51:48.219Z,-2.94
2023-02-05T21:54:18.421Z,-3.01
2023-02-05T21:56:48.616Z,-3.06
2023-02-05T21:59:21.443Z,-3.06
2023-02-05T22:01:51.696Z,-3.09
2023-02-05T22:04:21.941Z,-3.12
2023-02-05T22:06:54.027Z,-3.13
2023-02-05T22:09:24.226Z,-3.15
2023-02-05T22:11:54.638Z,-3.17
2023-02-05T22:14:27.574Z,-3.16
2023-02-05T22:16:57.789Z,-3.24
2023-02-05T22:19:28.955Z,-3.30
2023-02-05T22:21:59.754Z,-3.44
2023-02-05T22:24:29.985Z,-3.52
2023-02-05T22:27:00.550Z,-3.58
2023-02-05T22:29:33.495Z,-3.57
2023-02-05T22:32:03.693Z,-3.59
2023-02-05T22:34:33.980Z,-3.55
2023-02-05T22:37:04.336Z,-3.48
2023-02-05T22:39:34.770Z,-3.41
2023-02-05T22:42:05.023Z,-3.38
2023-02-05T22:44:37.972Z,-3.40
2023-02-05T22:47:08.155Z,-3.42
2023-02-05T22:49:38.636Z,-3.62
2023-02-05T22:52:09.211Z,-3.46
2023-02-05T22:54:39.328Z,-3.49
2023-02-05T22:57:10.929Z,-3.51
2023-02-05T22:59:43.785Z,-3.56
2023-02-05T23:02:14.178Z,-3.59
2023-02-05T23:04:44.318Z,-3.68
2023-02-05T23:07:14.500Z,-3.63
2023-02-05T23:09:44.742Z,-3.35
2023-02-05T23:12:15.136Z,-3.25
2023-02-05T23:14:48.018Z,-3.18
2023-02-05T23:17:18.328Z,-3.23
2023-02-05T23:19:53.994Z,-3.27
2023-02-05T23:22:24.121Z,-3.31
2023-02-05T23:24:54.322Z,-3.29
2023-02-05T23:27:26.578Z,-3.06
2023-02-05T23:30:00.268Z,-2.82
2023-02-05T23:32:30.466Z,-2.80
2023-02-05T23:35:00.941Z,-2.83
2023-02-05T23:37:31.206Z,-2.67
2023-02-05T23:40:02.007Z,-2.55
2023-02-05T23:42:35.336Z,-2.46
2023-02-05T23:45:08.719Z,-2.53
2023-02-05T23:47:38.989Z,-2.46
2023-02-05T23:50:10.515Z,-2.55
2023-02-05T23:52:40.949Z,-2.48
2023-02-05T23:55:11.476Z,-2.57
2023-02-05T23:57:41.743Z,-2.64
